Time;durP1;ratioP1;P1;durP2;ratioP2;P2;SDS_P1;SDS_P2;PMS_P1;PMS_P2;Temp;Humidity;BMP_temperature;BMP_pressure;BME280_temperature;BME280_humidity;BME280_pressure;Samples;Min_cycle;Max_cycle;Signal;HPM_P1;HPM_P2
2023/10/24 00:01:53;;;;;;;;;16.33;14.00;;;;;;;;5067612;28;9143;-83
2023/10/24 00:04:20;;;;;;;;;12.67;12.67;;;;;;;;5069918;28;10050;-83
2023/10/24 00:06:47;;;;;;;;;14.67;14.33;;;;;;;;5071120;28;9281;-84
2023/10/24 00:09:15;;;;;;;;;13.67;13.67;;;;;;;;5076260;28;9420;-82
2023/10/24 00:11:42;;;;;;;;;7.00;7.00;;;;;;;;5076527;28;9182;-83
2023/10/24 00:14:09;;;;;;;;;15.33;14.00;;;;;;;;5077116;28;9385;-83
2023/10/24 00:16:38;;;;;;;;;17.33;15.67;;;;;;;;5075780;28;9407;-83
2023/10/24 00:19:05;;;;;;;;;11.00;11.00;;;;;;;;5076296;28;9297;-83
2023/10/24 00:21:32;;;;;;;;;12.67;11.67;;;;;;;;5070996;28;9197;-83
2023/10/24 00:23:59;;;;;;;;;12.33;12.33;;;;;;;;5071002;28;8988;-82
2023/10/24 00:26:27;;;;;;;;;13.67;12.33;;;;;;;;5071838;28;9229;-81
2023/10/24 00:28:54;;;;;;;;;14.67;14.67;;;;;;;;5070869;28;9079;-82
2023/10/24 00:31:21;;;;;;;;;13.33;12.67;;;;;;;;5062045;28;8976;-83
2023/10/24 00:33:50;;;;;;;;;13.00;12.00;;;;;;;;5070859;28;9312;-82
2023/10/24 00:36:17;;;;;;;;;11.00;11.00;;;;;;;;5069303;28;9022;-82
2023/10/24 00:38:44;;;;;;;;;11.33;9.00;;;;;;;;5070757;28;9994;-82
2023/10/24 00:41:11;;;;;;;;;10.67;10.67;;;;;;;;5071138;28;9328;-81
2023/10/24 00:43:38;;;;;;;;;8.00;8.00;;;;;;;;5070008;28;9029;-83
2023/10/24 00:46:06;;;;;;;;;11.33;11.33;;;;;;;;5070598;28;9169;-83
2023/10/24 00:48:34;;;;;;;;;9.33;9.00;;;;;;;;5071369;28;9088;-79
2023/10/24 00:51:03;;;;;;;;;8.00;8.00;;;;;;;;5071178;28;9071;-83
2023/10/24 00:53:31;;;;;;;;;11.67;11.67;;;;;;;;5073144;28;9702;-82
2023/10/24 00:55:58;;;;;;;;;10.33;10.33;;;;;;;;5071662;28;9015;-82
2023/10/24 00:58:25;;;;;;;;;9.67;9.67;;;;;;;;5069639;28;8987;-79
2023/10/24 01:00:53;;;;;;;;;10.67;8.67;;;;;;;;5069419;28;8871;-83
2023/10/24 01:03:20;;;;;;;;;10.25;8.75;;;;;;;;5068678;28;8938;-83
2023/10/24 01:05:48;;;;;;;;;11.67;11.67;;;;;;;;5058697;28;9814;-82
2023/10/24 01:08:17;;;;;;;;;14.00;11.00;;;;;;;;5071131;28;9865;-83
2023/10/24 01:10:44;;;;;;;;;10.00;10.00;;;;;;;;5069618;28;9723;-83
2023/10/24 01:13:11;;;;;;;;;9.75;9.75;;;;;;;;5070792;28;8930;-83
2023/10/24 01:15:39;;;;;;;;;13.67;9.67;;;;;;;;5070153;28;8854;-83
2023/10/24 01:18:06;;;;;;;;;10.00;10.00;;;;;;;;5069839;28;8962;-83
2023/10/24 01:20:34;;;;;;;;;6.00;6.00;;;;;;;;5070603;28;9020;-81
2023/10/24 01:23:02;;;;;;;;;9.67;9.67;;;;;;;;5070635;28;9026;-82
2023/10/24 01:25:30;;;;;;;;;11.67;11.67;;;;;;;;5069967;28;9011;-82
2023/10/24 01:27:57;;;;;;;;;13.67;11.67;;;;;;;;5070342;28;8987;-84
2023/10/24 01:30:24;;;;;;;;;13.00;13.00;;;;;;;;5069930;28;8919;-82
2023/10/24 01:32:52;;;;;;;;;15.00;13.00;;;;;;;;5070489;28;9138;-82
2023/10/24 01:35:22;;;;;;;;;13.33;13.33;;;;;;;;5069259;28;9087;-83
2023/10/24 01:37:49;;;;;;;;;9.67;9.67;;;;;;;;5069911;28;8960;-83
2023/10/24 01:40:18;;;;;;;;;12.00;12.00;;;;;;;;5056572;28;8927;-83
2023/10/24 01:42:45;;;;;;;;;15.00;14.67;;;;;;;;5070131;28;9030;-82
2023/10/24 01:45:12;;;;;;;;;12.67;12.67;;;;;;;;5070886;28;8998;-81
2023/10/24 01:47:39;;;;;;;;;16.67;13.33;;;;;;;;5072557;28;9083;-82
2023/10/24 01:50:08;;;;;;;;;15.00;11.67;;;;;;;;5071292;28;9828;-82
2023/10/24 01:52:35;;;;;;;;;13.33;13.33;;;;;;;;5070343;28;8944;-83
2023/10/24 01:55:02;;;;;;;;;15.33;14.67;;;;;;;;5070464;28;9083;-83
2023/10/24 01:57:31;;;;;;;;;16.33;16.33;;;;;;;;5072520;28;8933;-83
2023/10/24 01:59:58;;;;;;;;;13.00;13.00;;;;;;;;5072822;28;8973;-82
2023/10/24 02:02:26;;;;;;;;;17.00;17.00;;;;;;;;5073405;28;8973;-83
2023/10/24 02:04:53;;;;;;;;;17.33;15.67;;;;;;;;5072919;28;9163;-82
2023/10/24 02:07:20;;;;;;;;;16.33;16.00;;;;;;;;5073506;28;9234;-79
2023/10/24 02:09:48;;;;;;;;;17.67;16.33;;;;;;;;5074188;28;9330;-83
2023/10/24 02:12:15;;;;;;;;;17.33;17.33;;;;;;;;5068772;28;9203;-82
2023/10/24 02:14:44;;;;;;;;;16.67;16.67;;;;;;;;5069296;28;10073;-82
2023/10/24 02:17:11;;;;;;;;;18.67;18.67;;;;;;;;5069348;28;10196;-82
2023/10/24 02:19:38;;;;;;;;;18.00;18.00;;;;;;;;5068890;28;9353;-83
2023/10/24 02:22:05;;;;;;;;;19.00;19.00;;;;;;;;5068034;28;9331;-82
2023/10/24 02:24:39;;;;;;;;;16.67;16.67;;;;;;;;5067174;28;9549;-82
2023/10/24 02:27:06;;;;;;;;;20.67;19.00;;;;;;;;5067752;28;8994;-83
2023/10/24 02:29:34;;;;;;;;;21.33;21.33;;;;;;;;5068753;28;9212;-83
2023/10/24 02:32:04;;;;;;;;;14.67;14.67;;;;;;;;5064334;28;9302;-82
2023/10/24 02:34:31;;;;;;;;;16.00;16.00;;;;;;;;5067464;28;9259;-83
2023/10/24 02:36:58;;;;;;;;;20.33;20.33;;;;;;;;5068113;28;9263;-84
2023/10/24 02:39:26;;;;;;;;;20.67;18.67;;;;;;;;5057546;28;9178;-83
2023/10/24 02:41:53;;;;;;;;;12.67;12.67;;;;;;;;5064146;28;9094;-83
2023/10/24 02:44:20;;;;;;;;;19.00;19.00;;;;;;;;5070834;28;9287;-84
2023/10/24 02:46:47;;;;;;;;;16.67;16.67;;;;;;;;5068260;28;9263;-82
2023/10/24 02:49:16;;;;;;;;;8.67;8.67;;;;;;;;5068340;28;9278;-82
2023/10/24 02:51:43;;;;;;;;;19.67;19.67;;;;;;;;5068008;28;9166;-84
2023/10/24 02:54:10;;;;;;;;;21.33;21.00;;;;;;;;5067327;28;9111;-84
2023/10/24 02:56:38;;;;;;;;;18.00;17.00;;;;;;;;5067854;28;9178;-84
2023/10/24 02:59:05;;;;;;;;;21.67;20.00;;;;;;;;5067044;28;9216;-83
2023/10/24 03:01:32;;;;;;;;;19.67;19.33;;;;;;;;5066307;28;9044;-83
2023/10/24 03:03:59;;;;;;;;;18.67;18.00;;;;;;;;5066646;28;9204;-82
2023/10/24 03:06:28;;;;;;;;;26.67;23.33;;;;;;;;5065783;28;9168;-83
2023/10/24 03:08:58;;;;;;;;;20.33;17.33;;;;;;;;5066568;28;9271;-79
2023/10/24 03:11:28;;;;;;;;;12.00;12.00;;;;;;;;5067989;28;9197;-78
2023/10/24 03:13:56;;;;;;;;;18.67;18.33;;;;;;;;5067733;28;9246;-82
2023/10/24 03:16:23;;;;;;;;;17.67;15.67;;;;;;;;5057579;28;9245;-81
2023/10/24 03:18:51;;;;;;;;;17.00;17.00;;;;;;;;5065023;28;9204;-81
2023/10/24 03:21:19;;;;;;;;;20.00;18.33;;;;;;;;5067532;28;9293;-81
2023/10/24 03:23:47;;;;;;;;;18.00;16.00;;;;;;;;5065232;28;9195;-81
2023/10/24 03:26:15;;;;;;;;;25.00;25.00;;;;;;;;5068349;28;9193;-82
2023/10/24 03:28:42;;;;;;;;;17.67;17.67;;;;;;;;5066461;28;10034;-82
2023/10/24 03:31:09;;;;;;;;;20.67;19.33;;;;;;;;5066445;28;9025;-81
2023/10/24 03:33:37;;;;;;;;;19.33;19.33;;;;;;;;5064674;28;9882;-80
2023/10/24 03:36:04;;;;;;;;;22.00;20.33;;;;;;;;5066070;28;9229;-80
2023/10/24 03:38:32;;;;;;;;;19.67;17.33;;;;;;;;5063387;28;9079;-80
2023/10/24 03:41:02;;;;;;;;;21.33;19.33;;;;;;;;5060565;28;9094;-80
2023/10/24 03:43:29;;;;;;;;;23.67;21.33;;;;;;;;5071899;28;9095;-81
2023/10/24 03:45:56;;;;;;;;;24.00;24.00;;;;;;;;5075003;28;9385;-80
2023/10/24 03:48:24;;;;;;;;;24.00;21.00;;;;;;;;5073051;28;9254;-81
2023/10/24 03:50:51;;;;;;;;;24.67;23.33;;;;;;;;5075227;28;9262;-81
2023/10/24 03:53:18;;;;;;;;;22.00;20.00;;;;;;;;5073074;28;9665;-81
2023/10/24 03:55:55;;;;;;;;;17.00;17.00;;;;;;;;5075245;28;9217;-82
2023/10/24 03:58:24;;;;;;;;;21.67;21.67;;;;;;;;5073050;28;9099;-82
2023/10/24 04:00:52;;;;;;;;;23.00;23.00;;;;;;;;5070713;28;9327;-81
2023/10/24 04:03:20;;;;;;;;;24.00;24.00;;;;;;;;5070867;28;9408;-80
2023/10/24 04:05:48;;;;;;;;;26.00;21.67;;;;;;;;5071416;28;9255;-82
2023/10/24 04:08:15;;;;;;;;;23.33;21.67;;;;;;;;5069122;28;9457;-81
2023/10/24 04:10:42;;;;;;;;;27.00;24.33;;;;;;;;5071773;28;9444;-87
2023/10/24 04:13:09;;;;;;;;;28.00;23.33;;;;;;;;5058993;28;9407;-83
2023/10/24 04:15:41;;;;;;;;;20.00;19.33;;;;;;;;5058204;28;9276;-84
2023/10/24 04:18:08;;;;;;;;;24.33;23.00;;;;;;;;5063381;28;9397;-85
2023/10/24 04:20:35;;;;;;;;;22.33;20.67;;;;;;;;5052427;28;9405;-79
2023/10/24 04:23:03;;;;;;;;;20.67;18.00;;;;;;;;5051606;28;9082;-81
2023/10/24 04:25:32;;;;;;;;;21.67;20.00;;;;;;;;5065178;28;9247;-82
2023/10/24 04:27:59;;;;;;;;;29.00;27.00;;;;;;;;5052221;28;9335;-79
2023/10/24 04:30:29;;;;;;;;;24.00;24.00;;;;;;;;5053130;28;9313;-83
2023/10/24 04:32:57;;;;;;;;;22.00;22.00;;;;;;;;5051269;28;9261;-81
2023/10/24 04:35:25;;;;;;;;;27.67;22.67;;;;;;;;5068705;28;9098;-82
2023/10/24 04:37:52;;;;;;;;;22.00;21.33;;;;;;;;5070336;28;9329;-85
2023/10/24 04:40:20;;;;;;;;;24.33;23.33;;;;;;;;5058151;28;9182;-85
2023/10/24 04:42:47;;;;;;;;;21.33;21.33;;;;;;;;5071037;28;9191;-85
2023/10/24 04:45:15;;;;;;;;;26.33;24.33;;;;;;;;5069635;28;8997;-85
2023/10/24 04:47:42;;;;;;;;;21.00;21.00;;;;;;;;5071291;28;9254;-85
2023/10/24 04:50:13;;;;;;;;;22.67;22.67;;;;;;;;5068991;28;9177;-85
2023/10/24 04:52:40;;;;;;;;;25.00;21.67;;;;;;;;5070605;28;9178;-85
2023/10/24 04:55:08;;;;;;;;;22.00;19.33;;;;;;;;5069852;28;9121;-88
2023/10/24 04:57:35;;;;;;;;;20.00;18.33;;;;;;;;5069255;28;9190;-84
2023/10/24 05:00:07;;;;;;;;;22.00;22.00;;;;;;;;5069703;28;9296;-84
2023/10/24 05:02:34;;;;;;;;;21.33;19.67;;;;;;;;5069957;28;9049;-84
2023/10/24 05:05:01;;;;;;;;;23.33;19.33;;;;;;;;5070452;28;9091;-83
2023/10/24 05:07:30;;;;;;;;;20.33;19.33;;;;;;;;5070772;28;9094;-81
2023/10/24 05:09:57;;;;;;;;;18.67;18.00;;;;;;;;5060149;28;9048;-86
2023/10/24 05:12:24;;;;;;;;;15.67;15.67;;;;;;;;5070631;28;9041;-85
2023/10/24 05:14:51;;;;;;;;;27.67;24.33;;;;;;;;5071050;28;8937;-86
2023/10/24 05:17:18;;;;;;;;;20.67;19.00;;;;;;;;5069667;28;9172;-78
2023/10/24 05:19:46;;;;;;;;;25.67;21.67;;;;;;;;5070153;28;9121;-77
2023/10/24 05:22:13;;;;;;;;;23.67;20.33;;;;;;;;5069453;28;9019;-76
2023/10/24 05:24:42;;;;;;;;;21.67;21.00;;;;;;;;5070107;28;9006;-77
2023/10/24 05:27:09;;;;;;;;;15.33;15.33;;;;;;;;5068762;28;9022;-77
2023/10/24 05:29:36;;;;;;;;;20.50;19.75;;;;;;;;5069902;28;9020;-76
2023/10/24 05:32:04;;;;;;;;;23.00;19.00;;;;;;;;5071187;28;8819;-75
2023/10/24 05:34:31;;;;;;;;;21.00;19.00;;;;;;;;5072631;28;9127;-75
2023/10/24 05:36:59;;;;;;;;;19.50;19.50;;;;;;;;5068001;28;8995;-76
2023/10/24 05:39:26;;;;;;;;;21.33;17.33;;;;;;;;5062911;28;8865;-76
2023/10/24 05:41:55;;;;;;;;;23.67;22.00;;;;;;;;5070867;28;9939;-75
2023/10/24 05:44:22;;;;;;;;;23.67;23.33;;;;;;;;5073625;28;8981;-79
2023/10/24 05:46:50;;;;;;;;;24.33;22.00;;;;;;;;5068531;28;9017;-77
2023/10/24 05:49:17;;;;;;;;;19.33;19.33;;;;;;;;5069060;28;9215;-76
2023/10/24 05:51:45;;;;;;;;;19.67;18.67;;;;;;;;5067857;28;9028;-76
2023/10/24 05:54:12;;;;;;;;;25.33;21.33;;;;;;;;5067574;28;9084;-77
2023/10/24 05:56:39;;;;;;;;;25.33;24.00;;;;;;;;5068673;28;9217;-76
2023/10/24 05:59:08;;;;;;;;;24.00;19.33;;;;;;;;5068375;28;9085;-77
2023/10/24 06:01:41;;;;;;;;;17.67;17.67;;;;;;;;5067647;28;8972;-76
2023/10/24 06:04:08;;;;;;;;;19.33;19.33;;;;;;;;5067644;28;9843;-77
2023/10/24 06:06:35;;;;;;;;;16.00;16.00;;;;;;;;5067537;28;8935;-76
2023/10/24 06:09:03;;;;;;;;;20.00;20.00;;;;;;;;5068114;28;8875;-77
2023/10/24 06:11:30;;;;;;;;;21.00;19.00;;;;;;;;5068751;28;9022;-76
2023/10/24 06:13:58;;;;;;;;;17.50;13.75;;;;;;;;5067444;28;9582;-76
2023/10/24 06:16:27;;;;;;;;;14.75;14.75;;;;;;;;5068731;28;8871;-77
2023/10/24 06:18:54;;;;;;;;;17.50;17.50;;;;;;;;5067944;28;8874;-76
2023/10/24 06:21:21;;;;;;;;;14.00;12.75;;;;;;;;5067279;28;8843;-79
2023/10/24 06:23:48;;;;;;;;;14.00;13.50;;;;;;;;5067318;28;8851;-77
2023/10/24 06:26:16;;;;;;;;;10.00;9.50;;;;;;;;5067910;28;8859;-77
2023/10/24 06:28:44;;;;;;;;;20.00;16.50;;;;;;;;5067534;28;8854;-79
2023/10/24 06:31:12;;;;;;;;;24.67;22.00;;;;;;;;5068122;28;8810;-78
2023/10/24 06:33:41;;;;;;;;;23.33;20.33;;;;;;;;5068585;28;8991;-77
2023/10/24 06:36:09;;;;;;;;;22.00;22.00;;;;;;;;5070479;28;8970;-77
2023/10/24 06:38:36;;;;;;;;;11.33;7.33;;;;;;;;5066819;28;9115;-76
2023/10/24 06:41:03;;;;;;;;;14.67;14.00;;;;;;;;5067831;28;9165;-78
2023/10/24 06:43:31;;;;;;;;;20.75;17.50;;;;;;;;5066320;28;8936;-75
2023/10/24 06:45:58;;;;;;;;;22.00;20.33;;;;;;;;5067871;28;8843;-76
2023/10/24 06:48:25;;;;;;;;;22.33;19.33;;;;;;;;5066841;28;9069;-75
2023/10/24 06:50:54;;;;;;;;;22.00;18.33;;;;;;;;5067584;28;9194;-75
2023/10/24 06:53:21;;;;;;;;;12.67;11.67;;;;;;;;5067273;28;9184;-76
2023/10/24 06:55:48;;;;;;;;;13.67;12.00;;;;;;;;5067804;28;9047;-76
2023/10/24 06:58:17;;;;;;;;;11.25;10.75;;;;;;;;5066386;28;8940;-76
2023/10/24 07:00:46;;;;;;;;;12.00;10.33;;;;;;;;5067131;28;8856;-76
2023/10/24 07:03:13;;;;;;;;;13.00;11.00;;;;;;;;5066991;28;8961;-75
2023/10/24 07:05:40;;;;;;;;;9.67;9.33;;;;;;;;5067295;28;8847;-77
2023/10/24 07:08:11;;;;;;;;;14.00;13.33;;;;;;;;5067179;28;8966;-75
2023/10/24 07:10:38;;;;;;;;;16.67;16.67;;;;;;;;5066865;28;8965;-77
2023/10/24 07:13:05;;;;;;;;;15.33;14.00;;;;;;;;5055094;28;8950;-75
2023/10/24 07:15:32;;;;;;;;;15.00;14.00;;;;;;;;5066434;28;9133;-75
2023/10/24 07:18:00;;;;;;;;;13.75;13.25;;;;;;;;5056337;28;8998;-75
2023/10/24 07:20:27;;;;;;;;;17.00;14.67;;;;;;;;5069386;28;8913;-75
2023/10/24 07:22:54;;;;;;;;;12.25;12.00;;;;;;;;5058424;28;9023;-75
2023/10/24 07:25:23;;;;;;;;;13.00;13.00;;;;;;;;5069729;28;8981;-73
2023/10/24 07:27:50;;;;;;;;;13.25;12.50;;;;;;;;5069637;28;8858;-74
2023/10/24 07:30:17;;;;;;;;;16.00;14.33;;;;;;;;5068927;28;9013;-76
2023/10/24 07:32:44;;;;;;;;;14.50;11.50;;;;;;;;5068669;28;9043;-75
2023/10/24 07:35:12;;;;;;;;;11.25;10.50;;;;;;;;5064909;28;8891;-82
2023/10/24 07:37:39;;;;;;;;;11.00;11.00;;;;;;;;5067157;28;8854;-76
2023/10/24 07:40:07;;;;;;;;;12.67;12.67;;;;;;;;5054179;28;8981;-83
2023/10/24 07:42:36;;;;;;;;;11.00;10.25;;;;;;;;5066010;28;8967;-74
2023/10/24 07:45:05;;;;;;;;;14.67;14.67;;;;;;;;5065863;28;9656;-76
2023/10/24 07:47:32;;;;;;;;;11.00;11.00;;;;;;;;5068395;28;8951;-74
2023/10/24 07:50:00;;;;;;;;;12.25;11.25;;;;;;;;5066825;28;8902;-76
2023/10/24 07:52:27;;;;;;;;;13.25;13.25;;;;;;;;5067707;28;8901;-81
2023/10/24 07:54:54;;;;;;;;;11.25;11.25;;;;;;;;5066174;28;8854;-79
2023/10/24 07:57:23;;;;;;;;;11.00;10.75;;;;;;;;5066769;28;8970;-79
2023/10/24 07:59:52;;;;;;;;;13.50;13.50;;;;;;;;5067037;28;8878;-77
2023/10/24 08:02:19;;;;;;;;;14.50;12.75;;;;;;;;5066871;28;8803;-78
2023/10/24 08:04:48;;;;;;;;;12.50;12.50;;;;;;;;5065111;28;8855;-76
2023/10/24 08:07:15;;;;;;;;;13.25;13.25;;;;;;;;5066507;28;8839;-77
2023/10/24 08:09:42;;;;;;;;;12.75;11.75;;;;;;;;5066211;28;8859;-77
2023/10/24 08:12:10;;;;;;;;;9.00;9.00;;;;;;;;5065752;28;8901;-74
2023/10/24 08:14:37;;;;;;;;;12.00;12.00;;;;;;;;5066303;28;8975;-79
2023/10/24 08:17:06;;;;;;;;;11.25;11.25;;;;;;;;5065094;28;8985;-74
2023/10/24 08:19:35;;;;;;;;;10.75;9.25;;;;;;;;5064967;28;8854;-75
2023/10/24 08:22:02;;;;;;;;;10.50;10.50;;;;;;;;5064316;28;9633;-75
2023/10/24 08:24:30;;;;;;;;;13.50;10.25;;;;;;;;5067919;28;8847;-78
2023/10/24 08:26:57;;;;;;;;;9.00;9.00;;;;;;;;5068032;28;8858;-78
2023/10/24 08:29:24;;;;;;;;;9.00;9.00;;;;;;;;5069156;28;8857;-85
2023/10/24 08:31:52;;;;;;;;;9.50;7.00;;;;;;;;5068868;28;8841;-75
2023/10/24 08:34:21;;;;;;;;;8.50;8.50;;;;;;;;5060199;28;8847;-83
2023/10/24 08:36:48;;;;;;;;;5.50;5.00;;;;;;;;5069263;28;8845;-76
2023/10/24 08:39:15;;;;;;;;;8.75;8.00;;;;;;;;5068964;28;8893;-74
2023/10/24 08:41:48;;;;;;;;;7.00;7.00;;;;;;;;5067564;28;8859;-81
2023/10/24 08:44:15;;;;;;;;;6.00;6.00;;;;;;;;5071096;28;9197;-74
2023/10/24 08:46:42;;;;;;;;;5.75;5.75;;;;;;;;5057408;28;8873;-74
2023/10/24 08:49:10;;;;;;;;;8.50;8.50;;;;;;;;5070422;28;8989;-81
2023/10/24 08:51:38;;;;;;;;;5.00;5.00;;;;;;;;5070226;28;8889;-75
2023/10/24 08:54:06;;;;;;;;;5.25;5.25;;;;;;;;5070347;28;9622;-79
2023/10/24 08:56:34;;;;;;;;;7.00;5.50;;;;;;;;5070717;28;8839;-74
2023/10/24 08:59:05;;;;;;;;;9.00;6.00;;;;;;;;5071213;28;8993;-78
2023/10/24 09:01:38;;;;;;;;;4.25;4.25;;;;;;;;5051666;28;8848;-76
2023/10/24 09:04:06;;;;;;;;;3.75;3.75;;;;;;;;5065078;28;8858;-78
2023/10/24 09:06:35;;;;;;;;;4.00;4.00;;;;;;;;5066136;28;8854;-78
2023/10/24 09:09:04;;;;;;;;;1.00;1.00;;;;;;;;5067369;28;8842;-76
2023/10/24 09:11:56;;;;;;;;;3.00;3.00;;;;;;;;5073437;28;8842;-76
2023/10/24 09:14:24;;;;;;;;;3.00;3.00;;;;;;;;5059639;28;8857;-79
2023/10/24 09:16:54;;;;;;;;;3.50;3.50;;;;;;;;5062700;28;8968;-77
2023/10/24 09:19:21;;;;;;;;;2.50;2.50;;;;;;;;5069597;28;8877;-84
2023/10/24 09:21:49;;;;;;;;;4.75;3.25;;;;;;;;5058079;28;8845;-79
2023/10/24 09:24:18;;;;;;;;;2.00;2.00;;;;;;;;5069112;28;8843;-77
2023/10/24 09:26:51;;;;;;;;;3.00;2.00;;;;;;;;5069359;28;8872;-78
2023/10/24 09:29:20;;;;;;;;;4.00;2.50;;;;;;;;5057879;28;9503;-79
2023/10/24 09:31:47;;;;;;;;;3.00;1.25;;;;;;;;5069232;28;8775;-78
2023/10/24 09:34:15;;;;;;;;;1.50;1.50;;;;;;;;5068962;28;8948;-76
2023/10/24 09:36:42;;;;;;;;;2.75;2.75;;;;;;;;5069413;28;9645;-76
2023/10/24 09:39:11;;;;;;;;;1.00;1.00;;;;;;;;5069004;28;9689;-82
2023/10/24 09:41:41;;;;;;;;;3.75;2.75;;;;;;;;5067783;28;8866;-79
2023/10/24 09:44:11;;;;;;;;;2.00;2.00;;;;;;;;5069328;28;9657;-80
2023/10/24 09:46:39;;;;;;;;;1.00;1.00;;;;;;;;5068796;28;8877;-75
2023/10/24 09:49:07;;;;;;;;;1.50;1.50;;;;;;;;5068420;28;8861;-75
2023/10/24 09:51:36;;;;;;;;;1.50;1.50;;;;;;;;5069009;28;8877;-76
2023/10/24 09:54:08;;;;;;;;;4.00;2.00;;;;;;;;5069516;28;8855;-74
2023/10/24 09:56:35;;;;;;;;;2.00;2.00;;;;;;;;5068816;28;8873;-78
2023/10/24 09:59:04;;;;;;;;;2.00;2.00;;;;;;;;5069599;28;8987;-76
2023/10/24 10:01:33;;;;;;;;;1.75;1.75;;;;;;;;5067948;28;8925;-77
2023/10/24 10:04:02;;;;;;;;;1.00;0.75;;;;;;;;5069281;28;8862;-84
2023/10/24 10:06:30;;;;;;;;;2.00;2.00;;;;;;;;5066765;28;8859;-77
2023/10/24 10:08:58;;;;;;;;;0.75;0.75;;;;;;;;5067554;28;8863;-82
2023/10/24 10:11:27;;;;;;;;;3.00;1.75;;;;;;;;5064744;28;8839;-79
2023/10/24 10:13:57;;;;;;;;;2.25;0.25;;;;;;;;5068380;28;9637;-83
2023/10/24 10:16:34;;;;;;;;;1.00;1.00;;;;;;;;5067356;28;9008;-78
2023/10/24 10:19:34;;;;;;;;;0.00;0.00;;;;;;;;5071124;28;8822;-85
2023/10/24 10:22:19;;;;;;;;;1.25;1.00;;;;;;;;5070527;28;8854;-76
2023/10/24 10:25:25;;;;;;;;;1.00;1.00;;;;;;;;5061133;28;8835;-79
2023/10/24 10:28:00;;;;;;;;;1.25;1.00;;;;;;;;5055948;28;8852;-77
2023/10/24 10:30:35;;;;;;;;;0.00;0.00;;;;;;;;5061693;28;8773;-79
2023/10/24 10:33:12;;;;;;;;;1.00;1.00;;;;;;;;5069148;28;8859;-78
2023/10/24 10:35:49;;;;;;;;;1.00;1.00;;;;;;;;5065866;28;8967;-75
2023/10/24 10:38:39;;;;;;;;;0.75;0.75;;;;;;;;5052536;28;8807;-80
2023/10/24 10:41:36;;;;;;;;;1.50;1.50;;;;;;;;5059712;28;8851;-77
2023/10/24 10:44:37;;;;;;;;;0.00;0.00;;;;;;;;5057593;28;8994;-82
2023/10/24 10:47:05;;;;;;;;;1.75;1.00;;;;;;;;5067777;28;8874;-74
2023/10/24 10:49:44;;;;;;;;;0.50;0.50;;;;;;;;5067501;28;8892;-75
2023/10/24 10:52:27;;;;;;;;;0.75;0.75;;;;;;;;5058927;28;8839;-77
2023/10/24 10:55:10;;;;;;;;;0.00;0.00;;;;;;;;5067676;28;8985;-77
2023/10/24 10:57:51;;;;;;;;;0.00;0.00;;;;;;;;5069403;28;8960;-74
2023/10/24 11:00:20;;;;;;;;;1.50;0.00;;;;;;;;5059535;28;8986;-77
2023/10/24 11:02:57;;;;;;;;;1.00;1.00;;;;;;;;5070595;28;8833;-75
2023/10/24 11:05:54;;;;;;;;;0.00;0.00;;;;;;;;5068832;28;8998;-79
2023/10/24 11:08:24;;;;;;;;;1.00;1.00;;;;;;;;5057834;28;8854;-76
2023/10/24 11:11:00;;;;;;;;;0.00;0.00;;;;;;;;5067411;28;8857;-76
2023/10/24 11:13:39;;;;;;;;;0.00;0.00;;;;;;;;5067487;28;8885;-83
2023/10/24 11:16:10;;;;;;;;;0.00;0.00;;;;;;;;5066896;28;8882;-74
2023/10/24 11:18:39;;;;;;;;;0.00;0.00;;;;;;;;5067912;28;8846;-81
2023/10/24 11:21:09;;;;;;;;;0.00;0.00;;;;;;;;5067166;28;8851;-80
2023/10/24 11:23:41;;;;;;;;;0.00;0.00;;;;;;;;5067817;28;8858;-77
2023/10/24 11:26:15;;;;;;;;;0.00;0.00;;;;;;;;5057023;28;8977;-77
2023/10/24 11:28:43;;;;;;;;;0.00;0.00;;;;;;;;5068639;28;8843;-81
2023/10/24 11:31:22;;;;;;;;;1.80;0.00;;;;;;;;5067699;28;8819;-82
2023/10/24 11:33:53;;;;;;;;;1.80;0.00;;;;;;;;5067690;28;8834;-81
2023/10/24 11:36:22;;;;;;;;;0.00;0.00;;;;;;;;5068655;28;8896;-85
2023/10/24 11:38:49;;;;;;;;;0.00;0.00;;;;;;;;5060957;28;8857;-87
2023/10/24 11:41:16;;;;;;;;;0.80;0.80;;;;;;;;5059516;28;8859;-85
2023/10/24 11:43:45;;;;;;;;;0.00;0.00;;;;;;;;5066706;28;8854;-84
2023/10/24 11:46:13;;;;;;;;;0.00;0.00;;;;;;;;5067672;28;10182;-79
2023/10/24 11:48:40;;;;;;;;;0.00;0.00;;;;;;;;5066934;28;8865;-88
2023/10/24 11:51:07;;;;;;;;;0.00;0.00;;;;;;;;5066923;28;8881;-77
2023/10/24 11:53:37;;;;;;;;;0.00;0.00;;;;;;;;5067318;28;8851;-85
2023/10/24 11:56:06;;;;;;;;;0.00;0.00;;;;;;;;5067357;28;8884;-80
2023/10/24 11:58:39;;;;;;;;;0.00;0.00;;;;;;;;5056091;28;8865;-76
2023/10/24 12:01:08;;;;;;;;;0.40;0.00;;;;;;;;5067677;28;8776;-75
2023/10/24 12:03:45;;;;;;;;;0.00;0.00;;;;;;;;5067833;28;8851;-74
2023/10/24 12:06:13;;;;;;;;;0.00;0.00;;;;;;;;5070362;28;8853;-77
2023/10/24 12:08:44;;;;;;;;;0.20;0.20;;;;;;;;5070457;28;8866;-78
2023/10/24 12:11:11;;;;;;;;;1.00;1.00;;;;;;;;5069739;28;8874;-77
2023/10/24 12:13:38;;;;;;;;;0.00;0.00;;;;;;;;5070763;28;8851;-79
2023/10/24 12:16:07;;;;;;;;;0.00;0.00;;;;;;;;5069561;28;8876;-74
2023/10/24 12:18:36;;;;;;;;;0.00;0.00;;;;;;;;5070780;28;8835;-80
2023/10/24 12:21:07;;;;;;;;;0.00;0.00;;;;;;;;5069369;28;9011;-76
2023/10/24 12:23:35;;;;;;;;;0.00;0.00;;;;;;;;5072038;28;8974;-73
2023/10/24 12:26:05;;;;;;;;;1.00;0.00;;;;;;;;5071589;28;9629;-73
2023/10/24 12:28:36;;;;;;;;;0.80;0.80;;;;;;;;5070253;28;8878;-73
2023/10/24 12:31:05;;;;;;;;;0.00;0.00;;;;;;;;5057910;28;8807;-74
2023/10/24 12:33:32;;;;;;;;;1.80;0.60;;;;;;;;5068545;28;8882;-73
2023/10/24 12:36:00;;;;;;;;;0.00;0.00;;;;;;;;5070380;28;8838;-73
2023/10/24 12:38:27;;;;;;;;;0.20;0.20;;;;;;;;5072626;28;8850;-73
2023/10/24 12:40:54;;;;;;;;;0.00;0.00;;;;;;;;5073027;28;8986;-77
2023/10/24 12:43:23;;;;;;;;;0.25;0.25;;;;;;;;5073135;28;8858;-73
2023/10/24 12:45:51;;;;;;;;;0.00;0.00;;;;;;;;5073769;28;8894;-72
2023/10/24 12:48:18;;;;;;;;;0.00;0.00;;;;;;;;5074077;28;8854;-79
2023/10/24 12:50:45;;;;;;;;;0.00;0.00;;;;;;;;5073447;28;8859;-83
2023/10/24 12:53:12;;;;;;;;;0.00;0.00;;;;;;;;5075198;28;8851;-92
2023/10/24 12:55:39;;;;;;;;;1.00;0.00;;;;;;;;5075254;28;8859;-90
2023/10/24 12:58:07;;;;;;;;;0.80;0.80;;;;;;;;5072076;28;8831;-76
2023/10/24 13:00:38;;;;;;;;;0.00;0.00;;;;;;;;5069751;28;8783;-86
2023/10/24 13:03:08;;;;;;;;;0.60;0.00;;;;;;;;5068981;28;9673;-81
2023/10/24 13:05:36;;;;;;;;;0.00;0.00;;;;;;;;5070453;28;8880;-75
2023/10/24 13:08:04;;;;;;;;;0.00;0.00;;;;;;;;5069270;28;8941;-76
2023/10/24 13:10:32;;;;;;;;;1.60;0.00;;;;;;;;5069421;28;8857;-82
2023/10/24 13:13:00;;;;;;;;;0.60;0.00;;;;;;;;5069056;28;8863;-81
2023/10/24 13:15:28;;;;;;;;;0.60;0.00;;;;;;;;5069557;28;8893;-77
2023/10/24 13:17:56;;;;;;;;;1.20;0.00;;;;;;;;5069013;28;8885;-78
2023/10/24 13:20:23;;;;;;;;;0.00;0.00;;;;;;;;5069366;28;8847;-78
2023/10/24 13:22:51;;;;;;;;;0.00;0.00;;;;;;;;5056649;28;8873;-76
2023/10/24 13:25:18;;;;;;;;;0.00;0.00;;;;;;;;5069044;28;8973;-74
2023/10/24 13:27:45;;;;;;;;;0.40;0.40;;;;;;;;5069629;28;8890;-74
2023/10/24 13:30:14;;;;;;;;;0.00;0.00;;;;;;;;5069955;28;8891;-75
2023/10/24 13:32:44;;;;;;;;;1.60;0.00;;;;;;;;5070262;28;8939;-81
2023/10/24 13:35:16;;;;;;;;;0.40;0.00;;;;;;;;5068641;28;8862;-76
2023/10/24 13:37:43;;;;;;;;;0.00;0.00;;;;;;;;5068990;28;8843;-76
2023/10/24 13:40:12;;;;;;;;;0.00;0.00;;;;;;;;5056474;28;8846;-75
2023/10/24 13:42:39;;;;;;;;;0.00;0.00;;;;;;;;5068249;28;8929;-74
2023/10/24 13:45:08;;;;;;;;;0.00;0.00;;;;;;;;5066844;28;8843;-74
2023/10/24 13:47:36;;;;;;;;;1.20;0.00;;;;;;;;5069644;28;8858;-75
2023/10/24 13:50:03;;;;;;;;;1.00;0.00;;;;;;;;5068217;28;8855;-75
2023/10/24 13:52:33;;;;;;;;;2.00;0.60;;;;;;;;5068010;28;8834;-74
2023/10/24 13:55:00;;;;;;;;;0.00;0.00;;;;;;;;5067175;28;8839;-74
2023/10/24 13:57:27;;;;;;;;;2.80;0.00;;;;;;;;5068771;28;8900;-74
2023/10/24 13:59:55;;;;;;;;;1.00;1.00;;;;;;;;5065940;28;8881;-76
2023/10/24 14:02:22;;;;;;;;;1.60;0.00;;;;;;;;5068603;28;8803;-75
2023/10/24 14:04:53;;;;;;;;;0.20;0.00;;;;;;;;5066963;28;8858;-75
2023/10/24 14:07:21;;;;;;;;;0.80;0.80;;;;;;;;5068141;28;8888;-74
2023/10/24 14:09:49;;;;;;;;;0.00;0.00;;;;;;;;5067601;28;9653;-76
2023/10/24 14:12:16;;;;;;;;;0.00;0.00;;;;;;;;5067332;28;8862;-76
2023/10/24 14:14:44;;;;;;;;;1.00;1.00;;;;;;;;5056476;28;9777;-75
2023/10/24 14:17:11;;;;;;;;;1.00;0.60;;;;;;;;5067767;28;8861;-72
2023/10/24 14:19:48;;;;;;;;;1.80;0.80;;;;;;;;5056901;28;8851;-71
2023/10/24 14:22:16;;;;;;;;;0.00;0.00;;;;;;;;5069140;28;8932;-76
2023/10/24 14:24:52;;;;;;;;;0.20;0.20;;;;;;;;5072548;28;8866;-75
2023/10/24 14:27:23;;;;;;;;;0.00;0.00;;;;;;;;5070180;28;8870;-76
2023/10/24 14:29:50;;;;;;;;;2.40;1.00;;;;;;;;5071804;28;8854;-78
2023/10/24 14:32:18;;;;;;;;;0.00;0.00;;;;;;;;5071550;28;8811;-77
2023/10/24 14:34:46;;;;;;;;;0.20;0.20;;;;;;;;5072176;28;8859;-86
2023/10/24 14:37:13;;;;;;;;;0.00;0.00;;;;;;;;5067623;28;8939;-79
2023/10/24 14:39:41;;;;;;;;;0.00;0.00;;;;;;;;5057907;28;8861;-78
2023/10/24 14:42:11;;;;;;;;;0.00;0.00;;;;;;;;5068648;28;8854;-74
2023/10/24 14:44:45;;;;;;;;;0.00;0.00;;;;;;;;5069126;28;8851;-74
2023/10/24 14:47:12;;;;;;;;;1.60;0.00;;;;;;;;5069288;28;8866;-85
2023/10/24 14:49:42;;;;;;;;;0.00;0.00;;;;;;;;5067653;28;9680;-76
2023/10/24 14:52:10;;;;;;;;;0.00;0.00;;;;;;;;5067186;28;8838;-74
2023/10/24 14:54:39;;;;;;;;;1.20;0.00;;;;;;;;5067970;28;8846;-78